sensor_id;sensor_type;location;lat;lon;timestamp;P1;durP1;ratioP1;P2;durP2;ratioP2
45642;SDS011;31358;46.008;11.144;2023-12-14T00:01:33;9.32;;;5.63;;
45642;SDS011;31358;46.008;11.144;2023-12-14T00:03:59;6.22;;;4.60;;
45642;SDS011;31358;46.008;11.144;2023-12-14T00:06:24;7.15;;;4.82;;
45642;SDS011;31358;46.008;11.144;2023-12-14T00:08:50;6.50;;;4.85;;
45642;SDS011;31358;46.008;11.144;2023-12-14T00:11:16;6.00;;;3.78;;
45642;SDS011;31358;46.008;11.144;2023-12-14T00:13:41;5.75;;;3.63;;
45642;SDS011;31358;46.008;11.144;2023-12-14T00:16:07;4.82;;;3.30;;
45642;SDS011;31358;46.008;11.144;2023-12-14T00:18:33;6.15;;;4.25;;
45642;SDS011;31358;46.008;11.144;2023-12-14T00:20:59;7.43;;;3.63;;
45642;SDS011;31358;46.008;11.144;2023-12-14T00:23:24;6.00;;;3.97;;
45642;SDS011;31358;46.008;11.144;2023-12-14T00:25:50;7.18;;;3.92;;
45642;SDS011;31358;46.008;11.144;2023-12-14T00:28:16;6.03;;;3.95;;
45642;SDS011;31358;46.008;11.144;2023-12-14T00:30:42;7.38;;;4.22;;
45642;SDS011;31358;46.008;11.144;2023-12-14T00:33:07;7.75;;;5.05;;
45642;SDS011;31358;46.008;11.144;2023-12-14T00:35:33;5.70;;;4.13;;
45642;SDS011;31358;46.008;11.144;2023-12-14T00:37:59;6.65;;;4.63;;
45642;SDS011;31358;46.008;11.144;2023-12-14T00:40:25;6.32;;;4.50;;
45642;SDS011;31358;46.008;11.144;2023-12-14T00:42:51;7.15;;;4.90;;
45642;SDS011;31358;46.008;11.144;2023-12-14T00:45:16;6.53;;;5.07;;
45642;SDS011;31358;46.008;11.144;2023-12-14T00:47:42;8.32;;;5.60;;
45642;SDS011;31358;46.008;11.144;2023-12-14T00:50:08;7.57;;;5.10;;
45642;SDS011;31358;46.008;11.144;2023-12-14T00:52:34;10.57;;;6.57;;
45642;SDS011;31358;46.008;11.144;2023-12-14T00:54:59;8.63;;;6.35;;
45642;SDS011;31358;46.008;11.144;2023-12-14T00:57:25;8.95;;;5.95;;
45642;SDS011;31358;46.008;11.144;2023-12-14T00:59:51;9.27;;;6.47;;
45642;SDS011;31358;46.008;11.144;2023-12-14T01:02:17;8.43;;;6.22;;
45642;SDS011;31358;46.008;11.144;2023-12-14T01:04:42;8.13;;;6.13;;
45642;SDS011;31358;46.008;11.144;2023-12-14T01:07:08;8.38;;;6.25;;
45642;SDS011;31358;46.008;11.144;2023-12-14T01:09:34;9.73;;;6.57;;
45642;SDS011;31358;46.008;11.144;2023-12-14T01:12:00;8.13;;;6.20;;
45642;SDS011;31358;46.008;11.144;2023-12-14T01:14:26;9.10;;;6.72;;
45642;SDS011;31358;46.008;11.144;2023-12-14T01:16:51;9.48;;;6.20;;
45642;SDS011;31358;46.008;11.144;2023-12-14T01:19:17;8.43;;;6.13;;
45642;SDS011;31358;46.008;11.144;2023-12-14T01:21:43;8.48;;;6.55;;
45642;SDS011;31358;46.008;11.144;2023-12-14T01:24:08;7.13;;;5.75;;
45642;SDS011;31358;46.008;11.144;2023-12-14T01:26:34;6.57;;;4.75;;
45642;SDS011;31358;46.008;11.144;2023-12-14T01:29:00;8.43;;;5.05;;
45642;SDS011;31358;46.008;11.144;2023-12-14T01:31:25;8.27;;;5.63;;
45642;SDS011;31358;46.008;11.144;2023-12-14T01:33:51;8.38;;;5.30;;
45642;SDS011;31358;46.008;11.144;2023-12-14T01:36:23;6.97;;;5.00;;
45642;SDS011;31358;46.008;11.144;2023-12-14T01:38:50;7.22;;;5.03;;
45642;SDS011;31358;46.008;11.144;2023-12-14T01:41:16;9.02;;;5.47;;
45642;SDS011;31358;46.008;11.144;2023-12-14T01:43:42;8.18;;;5.82;;
45642;SDS011;31358;46.008;11.144;2023-12-14T01:46:08;7.93;;;6.07;;
45642;SDS011;31358;46.008;11.144;2023-12-14T01:48:33;7.90;;;5.82;;
45642;SDS011;31358;46.008;11.144;2023-12-14T01:50:59;7.57;;;5.20;;
45642;SDS011;31358;46.008;11.144;2023-12-14T01:53:25;7.97;;;5.40;;
45642;SDS011;31358;46.008;11.144;2023-12-14T01:55:51;6.63;;;5.00;;
45642;SDS011;31358;46.008;11.144;2023-12-14T01:58:16;6.90;;;5.65;;
45642;SDS011;31358;46.008;11.144;2023-12-14T02:03:10;8.25;;;6.53;;
45642;SDS011;31358;46.008;11.144;2023-12-14T02:05:36;8.43;;;6.22;;
45642;SDS011;31358;46.008;11.144;2023-12-14T02:08:02;6.97;;;5.28;;
45642;SDS011;31358;46.008;11.144;2023-12-14T02:10:28;7.35;;;5.18;;
45642;SDS011;31358;46.008;11.144;2023-12-14T02:12:53;7.30;;;4.88;;
45642;SDS011;31358;46.008;11.144;2023-12-14T02:15:19;7.93;;;5.68;;
45642;SDS011;31358;46.008;11.144;2023-12-14T02:17:45;7.22;;;5.18;;
45642;SDS011;31358;46.008;11.144;2023-12-14T02:20:11;7.85;;;6.10;;
45642;SDS011;31358;46.008;11.144;2023-12-14T02:22:52;9.57;;;6.47;;
45642;SDS011;31358;46.008;11.144;2023-12-14T02:25:19;8.63;;;6.05;;
45642;SDS011;31358;46.008;11.144;2023-12-14T02:27:46;10.05;;;6.20;;
45642;SDS011;31358;46.008;11.144;2023-12-14T02:30:12;9.70;;;6.50;;
45642;SDS011;31358;46.008;11.144;2023-12-14T02:32:38;8.13;;;5.95;;
45642;SDS011;31358;46.008;11.144;2023-12-14T02:35:05;8.90;;;6.45;;
45642;SDS011;31358;46.008;11.144;2023-12-14T02:37:32;9.95;;;6.97;;
45642;SDS011;31358;46.008;11.144;2023-12-14T02:39:58;8.63;;;6.55;;
45642;SDS011;31358;46.008;11.144;2023-12-14T02:42:24;8.20;;;6.53;;
45642;SDS011;31358;46.008;11.144;2023-12-14T02:44:50;9.55;;;6.15;;
45642;SDS011;31358;46.008;11.144;2023-12-14T02:47:16;9.25;;;6.43;;
45642;SDS011;31358;46.008;11.144;2023-12-14T02:49:42;8.27;;;6.18;;
45642;SDS011;31358;46.008;11.144;2023-12-14T02:52:09;8.73;;;6.57;;
45642;SDS011;31358;46.008;11.144;2023-12-14T02:54:34;7.88;;;6.03;;
45642;SDS011;31358;46.008;11.144;2023-12-14T02:57:03;8.25;;;5.70;;
45642;SDS011;31358;46.008;11.144;2023-12-14T02:59:29;7.90;;;6.05;;
45642;SDS011;31358;46.008;11.144;2023-12-14T03:01:54;9.43;;;6.30;;
45642;SDS011;31358;46.008;11.144;2023-12-14T03:04:20;8.40;;;5.53;;
45642;SDS011;31358;46.008;11.144;2023-12-14T03:06:46;8.45;;;5.75;;
45642;SDS011;31358;46.008;11.144;2023-12-14T03:09:11;9.00;;;5.10;;
45642;SDS011;31358;46.008;11.144;2023-12-14T03:11:37;9.05;;;5.80;;
45642;SDS011;31358;46.008;11.144;2023-12-14T03:14:03;9.68;;;6.55;;
45642;SDS011;31358;46.008;11.144;2023-12-14T03:16:28;7.35;;;5.85;;
45642;SDS011;31358;46.008;11.144;2023-12-14T03:18:54;7.93;;;5.95;;
45642;SDS011;31358;46.008;11.144;2023-12-14T03:21:21;8.07;;;6.05;;
45642;SDS011;31358;46.008;11.144;2023-12-14T03:23:47;9.68;;;5.78;;
45642;SDS011;31358;46.008;11.144;2023-12-14T03:26:13;8.02;;;5.88;;
45642;SDS011;31358;46.008;11.144;2023-12-14T03:28:39;7.25;;;5.80;;
45642;SDS011;31358;46.008;11.144;2023-12-14T03:31:04;7.95;;;5.43;;
45642;SDS011;31358;46.008;11.144;2023-12-14T03:33:30;10.15;;;6.82;;
45642;SDS011;31358;46.008;11.144;2023-12-14T03:35:56;7.47;;;5.43;;
45642;SDS011;31358;46.008;11.144;2023-12-14T03:38:22;8.95;;;5.50;;
45642;SDS011;31358;46.008;11.144;2023-12-14T03:40:48;8.15;;;6.07;;
45642;SDS011;31358;46.008;11.144;2023-12-14T03:43:13;7.57;;;5.40;;
45642;SDS011;31358;46.008;11.144;2023-12-14T03:45:39;7.38;;;5.32;;
45642;SDS011;31358;46.008;11.144;2023-12-14T03:48:05;8.70;;;6.30;;
45642;SDS011;31358;46.008;11.144;2023-12-14T03:50:30;9.55;;;5.68;;
45642;SDS011;31358;46.008;11.144;2023-12-14T03:52:57;7.28;;;5.07;;
45642;SDS011;31358;46.008;11.144;2023-12-14T03:55:23;7.70;;;5.05;;
45642;SDS011;31358;46.008;11.144;2023-12-14T03:57:49;7.40;;;5.25;;
45642;SDS011;31358;46.008;11.144;2023-12-14T04:00:15;8.02;;;4.72;;
45642;SDS011;31358;46.008;11.144;2023-12-14T04:02:41;7.18;;;5.15;;
45642;SDS011;31358;46.008;11.144;2023-12-14T04:05:08;7.45;;;5.65;;
45642;SDS011;31358;46.008;11.144;2023-12-14T04:07:39;9.27;;;5.70;;
45642;SDS011;31358;46.008;11.144;2023-12-14T04:10:12;7.40;;;5.63;;
45642;SDS011;31358;46.008;11.144;2023-12-14T04:12:38;9.05;;;5.50;;
45642;SDS011;31358;46.008;11.144;2023-12-14T04:15:05;7.72;;;5.25;;
45642;SDS011;31358;46.008;11.144;2023-12-14T04:17:32;8.80;;;5.80;;
45642;SDS011;31358;46.008;11.144;2023-12-14T04:19:58;8.45;;;5.60;;
45642;SDS011;31358;46.008;11.144;2023-12-14T04:22:24;8.70;;;5.95;;
45642;SDS011;31358;46.008;11.144;2023-12-14T04:24:50;5.90;;;4.60;;
45642;SDS011;31358;46.008;11.144;2023-12-14T04:27:16;7.57;;;5.05;;
45642;SDS011;31358;46.008;11.144;2023-12-14T04:29:42;8.70;;;5.85;;
45642;SDS011;31358;46.008;11.144;2023-12-14T04:32:08;8.40;;;6.03;;
45642;SDS011;31358;46.008;11.144;2023-12-14T04:34:33;11.40;;;6.15;;
45642;SDS011;31358;46.008;11.144;2023-12-14T04:36:59;8.90;;;6.20;;
45642;SDS011;31358;46.008;11.144;2023-12-14T04:39:25;8.40;;;6.50;;
45642;SDS011;31358;46.008;11.144;2023-12-14T04:41:51;8.70;;;6.50;;
45642;SDS011;31358;46.008;11.144;2023-12-14T04:44:18;7.85;;;5.72;;
45642;SDS011;31358;46.008;11.144;2023-12-14T04:46:44;8.85;;;6.13;;
45642;SDS011;31358;46.008;11.144;2023-12-14T04:49:10;9.98;;;7.05;;
45642;SDS011;31358;46.008;11.144;2023-12-14T04:51:36;7.00;;;5.53;;
45642;SDS011;31358;46.008;11.144;2023-12-14T04:54:02;8.02;;;5.88;;
45642;SDS011;31358;46.008;11.144;2023-12-14T04:56:28;8.18;;;5.82;;
45642;SDS011;31358;46.008;11.144;2023-12-14T04:58:53;8.13;;;5.75;;
45642;SDS011;31358;46.008;11.144;2023-12-14T05:01:19;7.43;;;4.82;;
45642;SDS011;31358;46.008;11.144;2023-12-14T05:03:45;7.47;;;5.38;;
45642;SDS011;31358;46.008;11.144;2023-12-14T05:06:10;7.38;;;4.88;;
45642;SDS011;31358;46.008;11.144;2023-12-14T05:08:36;6.85;;;4.63;;
45642;SDS011;31358;46.008;11.144;2023-12-14T05:11:02;6.40;;;4.57;;
45642;SDS011;31358;46.008;11.144;2023-12-14T05:13:28;7.68;;;5.28;;
45642;SDS011;31358;46.008;11.144;2023-12-14T05:15:54;9.15;;;5.40;;
45642;SDS011;31358;46.008;11.144;2023-12-14T05:18:20;7.93;;;5.50;;
45642;SDS011;31358;46.008;11.144;2023-12-14T05:20:46;7.93;;;5.43;;
45642;SDS011;31358;46.008;11.144;2023-12-14T05:23:12;7.90;;;4.93;;
45642;SDS011;31358;46.008;11.144;2023-12-14T05:25:38;7.63;;;4.88;;
45642;SDS011;31358;46.008;11.144;2023-12-14T05:28:03;6.78;;;5.05;;
45642;SDS011;31358;46.008;11.144;2023-12-14T05:30:29;7.97;;;5.65;;
45642;SDS011;31358;46.008;11.144;2023-12-14T05:32:55;7.88;;;5.70;;
45642;SDS011;31358;46.008;11.144;2023-12-14T05:35:21;7.75;;;5.18;;
45642;SDS011;31358;46.008;11.144;2023-12-14T05:37:47;8.35;;;6.28;;
45642;SDS011;31358;46.008;11.144;2023-12-14T05:40:13;7.80;;;4.60;;
45642;SDS011;31358;46.008;11.144;2023-12-14T05:42:38;6.13;;;4.32;;
45642;SDS011;31358;46.008;11.144;2023-12-14T05:45:05;6.38;;;4.00;;
45642;SDS011;31358;46.008;11.144;2023-12-14T05:47:31;5.50;;;4.03;;
45642;SDS011;31358;46.008;11.144;2023-12-14T05:49:59;10.93;;;4.40;;
45642;SDS011;31358;46.008;11.144;2023-12-14T05:52:25;6.38;;;4.50;;
45642;SDS011;31358;46.008;11.144;2023-12-14T05:54:50;6.22;;;4.05;;
45642;SDS011;31358;46.008;11.144;2023-12-14T05:57:16;6.03;;;4.07;;
45642;SDS011;31358;46.008;11.144;2023-12-14T05:59:42;6.38;;;4.43;;
45642;SDS011;31358;46.008;11.144;2023-12-14T06:02:07;7.43;;;4.57;;
45642;SDS011;31358;46.008;11.144;2023-12-14T06:04:33;7.13;;;5.18;;
45642;SDS011;31358;46.008;11.144;2023-12-14T06:06:59;6.88;;;4.65;;
45642;SDS011;31358;46.008;11.144;2023-12-14T06:09:25;7.50;;;5.03;;
45642;SDS011;31358;46.008;11.144;2023-12-14T06:11:58;7.50;;;4.47;;
45642;SDS011;31358;46.008;11.144;2023-12-14T06:14:25;8.63;;;4.43;;
45642;SDS011;31358;46.008;11.144;2023-12-14T06:16:51;8.98;;;6.38;;
45642;SDS011;31358;46.008;11.144;2023-12-14T06:19:17;6.97;;;4.93;;
45642;SDS011;31358;46.008;11.144;2023-12-14T06:21:42;7.65;;;5.18;;
45642;SDS011;31358;46.008;11.144;2023-12-14T06:24:08;7.72;;;4.95;;
45642;SDS011;31358;46.008;11.144;2023-12-14T06:26:34;6.25;;;3.97;;
45642;SDS011;31358;46.008;11.144;2023-12-14T06:28:59;13.90;;;12.50;;
45642;SDS011;31358;46.008;11.144;2023-12-14T06:31:25;9.18;;;7.15;;
45642;SDS011;31358;46.008;11.144;2023-12-14T06:33:51;6.15;;;4.70;;
45642;SDS011;31358;46.008;11.144;2023-12-14T06:36:16;5.53;;;3.97;;
45642;SDS011;31358;46.008;11.144;2023-12-14T06:38:45;6.30;;;4.28;;
45642;SDS011;31358;46.008;11.144;2023-12-14T06:41:20;7.13;;;4.80;;
45642;SDS011;31358;46.008;11.144;2023-12-14T06:43:50;6.55;;;4.22;;
45642;SDS011;31358;46.008;11.144;2023-12-14T06:46:17;7.15;;;4.88;;
45642;SDS011;31358;46.008;11.144;2023-12-14T06:48:43;7.75;;;5.05;;
45642;SDS011;31358;46.008;11.144;2023-12-14T06:51:09;7.90;;;5.55;;
45642;SDS011;31358;46.008;11.144;2023-12-14T06:53:35;8.38;;;6.13;;
45642;SDS011;31358;46.008;11.144;2023-12-14T06:56:02;9.38;;;5.65;;
45642;SDS011;31358;46.008;11.144;2023-12-14T06:58:28;9.23;;;6.10;;
45642;SDS011;31358;46.008;11.144;2023-12-14T07:00:54;8.23;;;5.00;;
45642;SDS011;31358;46.008;11.144;2023-12-14T07:03:20;6.88;;;4.22;;
45642;SDS011;31358;46.008;11.144;2023-12-14T07:05:45;5.72;;;4.05;;
45642;SDS011;31358;46.008;11.144;2023-12-14T07:08:11;6.32;;;4.15;;
45642;SDS011;31358;46.008;11.144;2023-12-14T07:10:37;5.60;;;4.20;;
45642;SDS011;31358;46.008;11.144;2023-12-14T07:13:03;7.82;;;4.82;;
45642;SDS011;31358;46.008;11.144;2023-12-14T07:15:29;5.75;;;4.13;;
45642;SDS011;31358;46.008;11.144;2023-12-14T07:17:54;8.02;;;5.30;;
45642;SDS011;31358;46.008;11.144;2023-12-14T07:20:20;6.20;;;4.30;;
45642;SDS011;31358;46.008;11.144;2023-12-14T07:22:46;7.88;;;4.57;;
45642;SDS011;31358;46.008;11.144;2023-12-14T07:25:12;7.78;;;5.95;;
45642;SDS011;31358;46.008;11.144;2023-12-14T07:27:38;9.68;;;6.75;;
45642;SDS011;31358;46.008;11.144;2023-12-14T07:30:04;7.35;;;5.20;;
45642;SDS011;31358;46.008;11.144;2023-12-14T07:32:30;7.82;;;5.55;;
45642;SDS011;31358;46.008;11.144;2023-12-14T07:34:55;9.35;;;5.82;;
45642;SDS011;31358;46.008;11.144;2023-12-14T07:37:21;6.72;;;4.25;;
45642;SDS011;31358;46.008;11.144;2023-12-14T07:39:47;6.93;;;4.95;;
45642;SDS011;31358;46.008;11.144;2023-12-14T07:42:12;10.68;;;5.03;;
45642;SDS011;31358;46.008;11.144;2023-12-14T07:44:44;7.80;;;5.20;;
45642;SDS011;31358;46.008;11.144;2023-12-14T07:47:10;7.20;;;5.05;;
45642;SDS011;31358;46.008;11.144;2023-12-14T07:49:35;7.40;;;4.55;;
45642;SDS011;31358;46.008;11.144;2023-12-14T07:52:01;9.30;;;5.93;;
45642;SDS011;31358;46.008;11.144;2023-12-14T07:54:27;10.23;;;6.35;;
45642;SDS011;31358;46.008;11.144;2023-12-14T07:56:53;8.70;;;5.80;;
45642;SDS011;31358;46.008;11.144;2023-12-14T07:59:19;7.90;;;5.68;;
45642;SDS011;31358;46.008;11.144;2023-12-14T08:01:44;8.90;;;5.50;;
45642;SDS011;31358;46.008;11.144;2023-12-14T08:04:10;8.45;;;5.93;;
45642;SDS011;31358;46.008;11.144;2023-12-14T08:06:36;9.43;;;6.10;;
45642;SDS011;31358;46.008;11.144;2023-12-14T08:09:04;9.77;;;6.00;;
45642;SDS011;31358;46.008;11.144;2023-12-14T08:11:30;10.68;;;7.60;;
45642;SDS011;31358;46.008;11.144;2023-12-14T08:13:57;11.38;;;7.53;;
45642;SDS011;31358;46.008;11.144;2023-12-14T08:16:23;12.30;;;8.23;;
45642;SDS011;31358;46.008;11.144;2023-12-14T08:18:49;11.02;;;7.65;;
45642;SDS011;31358;46.008;11.144;2023-12-14T08:21:14;9.93;;;7.13;;
45642;SDS011;31358;46.008;11.144;2023-12-14T08:23:41;10.52;;;7.18;;
45642;SDS011;31358;46.008;11.144;2023-12-14T08:26:07;10.15;;;7.35;;
45642;SDS011;31358;46.008;11.144;2023-12-14T08:28:35;9.93;;;6.95;;
45642;SDS011;31358;46.008;11.144;2023-12-14T08:31:00;10.07;;;6.40;;
45642;SDS011;31358;46.008;11.144;2023-12-14T08:33:28;9.30;;;6.53;;
45642;SDS011;31358;46.008;11.144;2023-12-14T08:35:54;8.52;;;6.28;;
45642;SDS011;31358;46.008;11.144;2023-12-14T08:38:20;8.18;;;6.03;;
45642;SDS011;31358;46.008;11.144;2023-12-14T08:40:45;9.75;;;6.63;;
45642;SDS011;31358;46.008;11.144;2023-12-14T08:43:11;9.63;;;6.40;;
45642;SDS011;31358;46.008;11.144;2023-12-14T08:45:37;8.75;;;5.68;;
45642;SDS011;31358;46.008;11.144;2023-12-14T08:48:03;7.93;;;5.97;;
45642;SDS011;31358;46.008;11.144;2023-12-14T08:50:32;8.38;;;5.78;;
45642;SDS011;31358;46.008;11.144;2023-12-14T08:52:58;8.95;;;6.07;;
45642;SDS011;31358;46.008;11.144;2023-12-14T08:55:24;8.75;;;6.57;;
45642;SDS011;31358;46.008;11.144;2023-12-14T08:57:50;7.20;;;4.70;;
45642;SDS011;31358;46.008;11.144;2023-12-14T09:00:16;8.40;;;5.10;;
45642;SDS011;31358;46.008;11.144;2023-12-14T09:02:43;7.20;;;4.63;;
45642;SDS011;31358;46.008;11.144;2023-12-14T09:05:11;7.60;;;4.18;;
45642;SDS011;31358;46.008;11.144;2023-12-14T09:07:37;9.05;;;5.07;;
45642;SDS011;31358;46.008;11.144;2023-12-14T09:10:03;7.07;;;4.78;;
45642;SDS011;31358;46.008;11.144;2023-12-14T09:12:29;6.00;;;3.72;;
45642;SDS011;31358;46.008;11.144;2023-12-14T09:14:55;5.45;;;3.53;;
45642;SDS011;31358;46.008;11.144;2023-12-14T09:17:21;6.38;;;3.97;;
45642;SDS011;31358;46.008;11.144;2023-12-14T09:19:47;6.32;;;3.70;;
45642;SDS011;31358;46.008;11.144;2023-12-14T09:22:12;5.57;;;3.80;;
45642;SDS011;31358;46.008;11.144;2023-12-14T09:24:38;6.53;;;4.15;;
45642;SDS011;31358;46.008;11.144;2023-12-14T09:27:04;6.43;;;3.53;;
45642;SDS011;31358;46.008;11.144;2023-12-14T09:29:29;5.97;;;3.53;;
45642;SDS011;31358;46.008;11.144;2023-12-14T09:31:55;6.10;;;3.25;;
45642;SDS011;31358;46.008;11.144;2023-12-14T09:34:22;5.97;;;3.30;;
45642;SDS011;31358;46.008;11.144;2023-12-14T09:36:49;5.55;;;3.58;;
45642;SDS011;31358;46.008;11.144;2023-12-14T09:39:15;6.35;;;3.88;;
45642;SDS011;31358;46.008;11.144;2023-12-14T09:41:40;5.75;;;3.70;;
45642;SDS011;31358;46.008;11.144;2023-12-14T09:44:06;7.50;;;4.00;;
45642;SDS011;31358;46.008;11.144;2023-12-14T09:46:36;5.82;;;3.50;;
45642;SDS011;31358;46.008;11.144;2023-12-14T09:49:02;5.13;;;3.53;;
45642;SDS011;31358;46.008;11.144;2023-12-14T09:51:29;5.70;;;3.30;;
45642;SDS011;31358;46.008;11.144;2023-12-14T09:53:56;7.22;;;3.45;;
45642;SDS011;31358;46.008;11.144;2023-12-14T09:56:25;5.55;;;3.50;;
45642;SDS011;31358;46.008;11.144;2023-12-14T09:58:51;6.00;;;3.45;;
45642;SDS011;31358;46.008;11.144;2023-12-14T10:01:35;7.35;;;3.42;;
45642;SDS011;31358;46.008;11.144;2023-12-14T10:04:19;6.25;;;3.13;;
45642;SDS011;31358;46.008;11.144;2023-12-14T10:06:46;5.93;;;2.95;;
45642;SDS011;31358;46.008;11.144;2023-12-14T10:09:12;7.55;;;4.20;;
45642;SDS011;31358;46.008;11.144;2023-12-14T10:11:40;4.88;;;2.90;;
45642;SDS011;31358;46.008;11.144;2023-12-14T10:14:23;5.40;;;3.28;;
45642;SDS011;31358;46.008;11.144;2023-12-14T10:16:50;5.32;;;3.58;;
45642;SDS011;31358;46.008;11.144;2023-12-14T10:19:17;5.68;;;3.70;;
45642;SDS011;31358;46.008;11.144;2023-12-14T10:21:44;5.10;;;3.63;;
45642;SDS011;31358;46.008;11.144;2023-12-14T10:24:12;6.03;;;3.63;;
45642;SDS011;31358;46.008;11.144;2023-12-14T10:26:38;5.43;;;3.30;;
45642;SDS011;31358;46.008;11.144;2023-12-14T10:29:04;5.05;;;2.45;;
45642;SDS011;31358;46.008;11.144;2023-12-14T10:31:30;5.10;;;2.65;;
45642;SDS011;31358;46.008;11.144;2023-12-14T10:33:56;5.55;;;3.17;;
45642;SDS011;31358;46.008;11.144;2023-12-14T10:36:22;6.13;;;3.45;;
45642;SDS011;31358;46.008;11.144;2023-12-14T10:38:53;5.70;;;3.17;;
45642;SDS011;31358;46.008;11.144;2023-12-14T10:41:22;4.53;;;2.75;;
45642;SDS011;31358;46.008;11.144;2023-12-14T10:43:50;5.88;;;2.72;;
45642;SDS011;31358;46.008;11.144;2023-12-14T10:46:18;14.48;;;6.90;;
45642;SDS011;31358;46.008;11.144;2023-12-14T10:48:45;7.20;;;3.75;;
45642;SDS011;31358;46.008;11.144;2023-12-14T10:51:13;5.18;;;3.00;;
45642;SDS011;31358;46.008;11.144;2023-12-14T10:53:40;4.78;;;2.63;;
45642;SDS011;31358;46.008;11.144;2023-12-14T10:56:11;4.82;;;3.08;;
45642;SDS011;31358;46.008;11.144;2023-12-14T10:58:48;5.35;;;3.38;;
45642;SDS011;31358;46.008;11.144;2023-12-14T11:01:16;6.93;;;4.50;;
45642;SDS011;31358;46.008;11.144;2023-12-14T11:03:45;8.02;;;4.32;;
45642;SDS011;31358;46.008;11.144;2023-12-14T11:08:57;7.20;;;4.18;;
45642;SDS011;31358;46.008;11.144;2023-12-14T11:12:19;6.38;;;3.67;;
45642;SDS011;31358;46.008;11.144;2023-12-14T11:14:18;14.50;;;8.02;;
45642;SDS011;31358;46.008;11.144;2023-12-14T11:16:45;31.48;;;17.98;;
45642;SDS011;31358;46.008;11.144;2023-12-14T11:19:23;23.88;;;12.68;;
45642;SDS011;31358;46.008;11.144;2023-12-14T11:24:25;11.20;;;4.65;;
45642;SDS011;31358;46.008;11.144;2023-12-14T11:26:52;9.27;;;5.80;;
45642;SDS011;31358;46.008;11.144;2023-12-14T11:29:19;8.20;;;5.28;;
45642;SDS011;31358;46.008;11.144;2023-12-14T11:31:45;8.30;;;4.47;;
45642;SDS011;31358;46.008;11.144;2023-12-14T11:34:11;13.90;;;10.50;;
45642;SDS011;31358;46.008;11.144;2023-12-14T11:36:37;9.48;;;6.18;;
45642;SDS011;31358;46.008;11.144;2023-12-14T11:39:07;6.63;;;4.90;;
45642;SDS011;31358;46.008;11.144;2023-12-14T11:41:34;6.20;;;3.60;;
45642;SDS011;31358;46.008;11.144;2023-12-14T11:44:00;5.60;;;3.50;;
45642;SDS011;31358;46.008;11.144;2023-12-14T11:46:26;5.85;;;2.92;;
45642;SDS011;31358;46.008;11.144;2023-12-14T11:48:55;5.65;;;3.08;;
45642;SDS011;31358;46.008;11.144;2023-12-14T11:51:21;4.18;;;2.60;;
45642;SDS011;31358;46.008;11.144;2023-12-14T11:53:48;4.97;;;2.92;;
45642;SDS011;31358;46.008;11.144;2023-12-14T11:56:17;5.90;;;2.42;;
45642;SDS011;31358;46.008;11.144;2023-12-14T11:58:43;4.05;;;2.30;;
45642;SDS011;31358;46.008;11.144;2023-12-14T12:01:16;5.50;;;2.80;;
45642;SDS011;31358;46.008;11.144;2023-12-14T12:03:43;4.65;;;2.50;;
45642;SDS011;31358;46.008;11.144;2023-12-14T12:06:25;4.95;;;2.53;;
45642;SDS011;31358;46.008;11.144;2023-12-14T12:08:55;5.50;;;2.63;;
45642;SDS011;31358;46.008;11.144;2023-12-14T12:11:22;4.75;;;2.00;;
45642;SDS011;31358;46.008;11.144;2023-12-14T12:13:52;6.57;;;3.78;;
45642;SDS011;31358;46.008;11.144;2023-12-14T12:16:21;35.67;;;30.38;;
45642;SDS011;31358;46.008;11.144;2023-12-14T12:18:47;54.92;;;42.25;;
45642;SDS011;31358;46.008;11.144;2023-12-14T12:21:15;42.67;;;32.22;;
45642;SDS011;31358;46.008;11.144;2023-12-14T12:23:41;183.30;;;91.28;;
45642;SDS011;31358;46.008;11.144;2023-12-14T12:26:07;120.07;;;73.28;;
45642;SDS011;31358;46.008;11.144;2023-12-14T12:28:33;82.38;;;50.55;;
45642;SDS011;31358;46.008;11.144;2023-12-14T12:30:59;44.13;;;30.17;;
45642;SDS011;31358;46.008;11.144;2023-12-14T12:33:25;9.15;;;6.45;;
45642;SDS011;31358;46.008;11.144;2023-12-14T12:35:51;5.20;;;2.63;;
45642;SDS011;31358;46.008;11.144;2023-12-14T12:38:17;3.65;;;2.10;;
45642;SDS011;31358;46.008;11.144;2023-12-14T12:40:44;5.13;;;2.75;;
45642;SDS011;31358;46.008;11.144;2023-12-14T12:43:09;5.45;;;2.83;;
45642;SDS011;31358;46.008;11.144;2023-12-14T12:45:36;15.13;;;10.65;;
45642;SDS011;31358;46.008;11.144;2023-12-14T12:48:02;12.85;;;9.48;;
45642;SDS011;31358;46.008;11.144;2023-12-14T12:50:29;14.35;;;7.65;;
45642;SDS011;31358;46.008;11.144;2023-12-14T12:52:55;24.48;;;19.52;;
45642;SDS011;31358;46.008;11.144;2023-12-14T12:55:21;4.93;;;2.83;;
45642;SDS011;31358;46.008;11.144;2023-12-14T12:57:48;4.18;;;1.70;;
45642;SDS011;31358;46.008;11.144;2023-12-14T13:00:14;5.80;;;1.70;;
45642;SDS011;31358;46.008;11.144;2023-12-14T13:02:40;3.00;;;1.60;;
45642;SDS011;31358;46.008;11.144;2023-12-14T13:05:07;3.17;;;1.20;;
45642;SDS011;31358;46.008;11.144;2023-12-14T13:07:34;2.80;;;1.40;;
45642;SDS011;31358;46.008;11.144;2023-12-14T13:10:01;2.72;;;1.40;;
45642;SDS011;31358;46.008;11.144;2023-12-14T13:12:28;3.40;;;1.63;;
45642;SDS011;31358;46.008;11.144;2023-12-14T13:14:55;2.70;;;1.35;;
45642;SDS011;31358;46.008;11.144;2023-12-14T13:17:20;3.45;;;1.55;;
45642;SDS011;31358;46.008;11.144;2023-12-14T13:19:47;3.33;;;1.55;;
45642;SDS011;31358;46.008;11.144;2023-12-14T13:22:12;2.05;;;1.05;;
45642;SDS011;31358;46.008;11.144;2023-12-14T13:24:38;5.88;;;1.33;;
45642;SDS011;31358;46.008;11.144;2023-12-14T13:27:04;3.83;;;1.65;;
45642;SDS011;31358;46.008;11.144;2023-12-14T13:29:30;4.30;;;1.25;;
45642;SDS011;31358;46.008;11.144;2023-12-14T13:31:57;4.07;;;1.60;;
45642;SDS011;31358;46.008;11.144;2023-12-14T13:34:24;3.88;;;2.00;;
45642;SDS011;31358;46.008;11.144;2023-12-14T13:36:50;4.88;;;1.95;;
45642;SDS011;31358;46.008;11.144;2023-12-14T13:39:16;3.80;;;1.70;;
45642;SDS011;31358;46.008;11.144;2023-12-14T13:41:42;3.65;;;1.30;;
45642;SDS011;31358;46.008;11.144;2023-12-14T13:44:08;3.13;;;1.70;;
45642;SDS011;31358;46.008;11.144;2023-12-14T13:46:34;3.97;;;1.60;;
45642;SDS011;31358;46.008;11.144;2023-12-14T13:49:00;4.32;;;1.75;;
45642;SDS011;31358;46.008;11.144;2023-12-14T13:51:27;3.08;;;1.30;;
45642;SDS011;31358;46.008;11.144;2023-12-14T13:53:53;5.22;;;2.40;;
45642;SDS011;31358;46.008;11.144;2023-12-14T13:56:18;4.35;;;2.08;;
45642;SDS011;31358;46.008;11.144;2023-12-14T13:58:44;6.85;;;3.00;;
45642;SDS011;31358;46.008;11.144;2023-12-14T14:01:10;4.85;;;2.63;;
45642;SDS011;31358;46.008;11.144;2023-12-14T14:03:35;5.05;;;1.83;;
45642;SDS011;31358;46.008;11.144;2023-12-14T14:06:02;3.90;;;1.40;;
45642;SDS011;31358;46.008;11.144;2023-12-14T14:08:29;3.83;;;2.25;;
45642;SDS011;31358;46.008;11.144;2023-12-14T14:10:56;6.13;;;2.97;;
45642;SDS011;31358;46.008;11.144;2023-12-14T14:13:22;28.55;;;16.25;;
45642;SDS011;31358;46.008;11.144;2023-12-14T14:15:48;30.13;;;17.92;;
45642;SDS011;31358;46.008;11.144;2023-12-14T14:18:14;30.42;;;18.08;;
45642;SDS011;31358;46.008;11.144;2023-12-14T14:20:39;21.65;;;12.90;;
45642;SDS011;31358;46.008;11.144;2023-12-14T14:23:05;9.77;;;6.10;;
45642;SDS011;31358;46.008;11.144;2023-12-14T14:25:31;9.88;;;4.18;;
45642;SDS011;31358;46.008;11.144;2023-12-14T14:27:57;6.50;;;3.28;;
45642;SDS011;31358;46.008;11.144;2023-12-14T14:30:23;4.85;;;2.78;;
45642;SDS011;31358;46.008;11.144;2023-12-14T14:32:49;4.55;;;2.15;;
45642;SDS011;31358;46.008;11.144;2023-12-14T14:35:15;6.45;;;2.17;;
45642;SDS011;31358;46.008;11.144;2023-12-14T14:37:41;3.13;;;1.42;;